Karachi Weather



Karachi's Current Weather

Temprature 37o few clouds

few clouds

Rain: 0 %

Min Temprature37o
Max Temprature37o
Humidity32
Wind Speed6.69 m/h
Sun Rise05:51:27
Sun Set19:04:53
Current Time: 08-May-2021 15:08:56
Lat/Lon: 24.9056, 67.0822




Karachi's Geo Location



Karachi's Weather Forecast

Time Overall Temp Min Temp Max Temp Humidity Wind Speed Rain
08-May-2021 (Sat)
17:00:00 scattered clouds 35.280 31.830 35.280 39 8.56 m/h 0 %
20:00:00 scattered clouds 32.290 29.940 32.290 52 3.17 m/h 0 %
23:00:00 scattered clouds 28.380 28.380 28.380 71 4.86 m/h 0 %
09-May-2021 (Sun)
02:00:00 broken clouds 27.660 27.660 27.660 77 6.02 m/h 0 %
05:00:00 broken clouds 27.420 27.420 27.420 79 7.56 m/h 0 %
08:00:00 scattered clouds 29.100 29.100 29.100 67 7.66 m/h 0 %
11:00:00 few clouds 32.240 32.240 32.240 54 8.41 m/h 0 %
14:00:00 few clouds 33.280 33.280 33.280 50 8.85 m/h 0 %
17:00:00 few clouds 31.620 31.620 31.620 55 8.69 m/h 0 %
20:00:00 clear sky 28.820 28.820 28.820 74 6.9 m/h 0 %
23:00:00 clear sky 28.240 28.240 28.240 81 7.44 m/h 0 %
10-May-2021 (Mon)
02:00:00 clear sky 28.070 28.070 28.070 75 5.21 m/h 0 %
05:00:00 few clouds 27.270 27.270 27.270 75 7.09 m/h 0 %
08:00:00 clear sky 28.880 28.880 28.880 69 8.6 m/h 0 %
11:00:00 clear sky 31.690 31.690 31.690 59 9.95 m/h 0 %
14:00:00 clear sky 32.730 32.730 32.730 53 10.74 m/h 0 %
17:00:00 clear sky 31.320 31.320 31.320 57 10.04 m/h 0 %
20:00:00 clear sky 28.810 28.810 28.810 75 7.31 m/h 0 %
23:00:00 clear sky 28.100 28.100 28.100 82 8.29 m/h 0 %
11-May-2021 (Tue)
02:00:00 clear sky 27.860 27.860 27.860 81 8.62 m/h 0 %
05:00:00 clear sky 28.040 28.040 28.040 76 7.59 m/h 0 %
08:00:00 clear sky 29.840 29.840 29.840 59 9.88 m/h 0 %
11:00:00 clear sky 32.920 32.920 32.920 42 11.36 m/h 0 %
14:00:00 clear sky 33.560 33.560 33.560 41 12.48 m/h 0 %
17:00:00 clear sky 31.990 31.990 31.990 49 11.53 m/h 0 %
20:00:00 clear sky 29.080 29.080 29.080 70 9.22 m/h 0 %
23:00:00 clear sky 28.190 28.190 28.190 81 8.68 m/h 0 %
12-May-2021 (Wed)
02:00:00 few clouds 27.560 27.560 27.560 86 10.31 m/h 0 %
05:00:00 few clouds 27.510 27.510 27.510 84 9.11 m/h 0 %
08:00:00 clear sky 29.840 29.840 29.840 65 9.26 m/h 0 %
11:00:00 clear sky 34.660 34.660 34.660 32 9.32 m/h 0 %
14:00:00 clear sky 35.560 35.560 35.560 26 10.27 m/h 0 %
17:00:00 clear sky 32.680 32.680 32.680 43 11.53 m/h 0 %
20:00:00 clear sky 29.270 29.270 29.270 63 10.58 m/h 0 %
23:00:00 clear sky 28.710 28.710 28.710 69 9.67 m/h 0 %
13-May-2021 (Thu)
02:00:00 clear sky 28.130 28.130 28.130 76 10.63 m/h 0 %
05:00:00 clear sky 27.680 27.680 27.680 79 9.42 m/h 0 %
08:00:00 clear sky 30.500 30.500 30.500 56 8.7 m/h 0 %
11:00:00 clear sky 34.300 34.300 34.300 36 8.16 m/h 0 %
14:00:00 clear sky 35.130 35.130 35.130 28 8.22 m/h 0 %

Famous Cities (60)